createdAt,value
2022-11-08T00:00:39.487Z,954.47
2022-11-08T00:01:39.548Z,954.45
2022-11-08T00:02:39.579Z,954.50
2022-11-08T00:03:39.449Z,954.49
2022-11-08T00:04:39.450Z,954.48
2022-11-08T00:05:39.438Z,954.47
2022-11-08T00:06:39.408Z,954.47
2022-11-08T00:07:39.406Z,954.49
2022-11-08T00:08:39.416Z,954.46
2022-11-08T00:09:39.386Z,954.43
2022-11-08T00:10:39.395Z,954.44
2022-11-08T00:11:39.377Z,954.45
2022-11-08T00:12:39.354Z,954.51
2022-11-08T00:13:39.331Z,954.47
2022-11-08T00:14:39.315Z,954.55
2022-11-08T00:15:39.383Z,954.48
2022-11-08T00:16:39.300Z,954.47
2022-11-08T00:17:39.281Z,954.45
2022-11-08T00:18:39.263Z,954.51
2022-11-08T00:19:39.231Z,954.47
2022-11-08T00:20:39.250Z,954.43
2022-11-08T00:21:39.203Z,954.41
2022-11-08T00:22:39.215Z,954.44
2022-11-08T00:23:39.184Z,954.44
2022-11-08T00:24:39.175Z,954.36
2022-11-08T00:25:39.183Z,954.42
2022-11-08T00:26:39.143Z,954.41
2022-11-08T00:27:39.145Z,954.41
2022-11-08T00:28:39.134Z,954.42
2022-11-08T00:29:39.096Z,954.44
2022-11-08T00:30:39.113Z,954.45
2022-11-08T00:31:39.077Z,954.47
2022-11-08T00:32:39.064Z,954.43
2022-11-08T00:33:39.047Z,954.43
2022-11-08T00:34:39.035Z,954.43
2022-11-08T00:35:39.036Z,954.49
2022-11-08T00:36:39.020Z,954.46
2022-11-08T00:37:39.011Z,954.47
2022-11-08T00:38:38.978Z,954.47
2022-11-08T00:39:38.959Z,954.45
2022-11-08T00:40:38.957Z,954.44
2022-11-08T00:41:38.963Z,954.45
2022-11-08T00:42:38.926Z,954.46
2022-11-08T00:43:38.911Z,954.42
2022-11-08T00:44:38.895Z,954.40
2022-11-08T00:45:38.876Z,954.40
2022-11-08T00:46:38.913Z,954.38
2022-11-08T00:47:38.876Z,954.41
2022-11-08T00:48:38.866Z,954.41
2022-11-08T00:49:38.841Z,954.40
2022-11-08T00:50:38.834Z,954.34
2022-11-08T00:51:38.822Z,954.33
2022-11-08T00:52:38.807Z,954.33
2022-11-08T00:53:38.795Z,954.28
2022-11-08T00:54:38.774Z,954.29
2022-11-08T00:55:38.751Z,954.33
2022-11-08T00:56:38.787Z,954.30
2022-11-08T00:57:53.923Z,954.36
2022-11-08T00:58:39.732Z,954.32
2022-11-08T00:59:38.722Z,954.34
2022-11-08T01:00:38.705Z,954.33
2022-11-08T01:01:38.836Z,954.35
2022-11-08T01:02:38.747Z,954.42
2022-11-08T01:03:38.655Z,954.38
2022-11-08T01:04:38.654Z,954.36
2022-11-08T01:05:38.657Z,954.31
2022-11-08T01:06:38.631Z,954.34
2022-11-08T01:07:38.641Z,954.40
2022-11-08T01:08:38.624Z,954.38
2022-11-08T01:09:38.607Z,954.38
2022-11-08T01:10:38.615Z,954.38
2022-11-08T01:11:38.605Z,954.39
2022-11-08T01:12:38.615Z,954.40
2022-11-08T01:13:38.597Z,954.41
2022-11-08T01:14:38.587Z,954.37
2022-11-08T01:15:38.703Z,954.37
2022-11-08T01:16:38.576Z,954.35
2022-11-08T01:17:38.600Z,954.37
2022-11-08T01:18:38.607Z,954.41
2022-11-08T01:19:38.579Z,954.36
2022-11-08T01:20:38.577Z,954.28
2022-11-08T01:21:38.575Z,954.24
2022-11-08T01:22:38.600Z,954.24
2022-11-08T01:23:38.580Z,954.22
2022-11-08T01:24:38.569Z,954.24
2022-11-08T01:25:38.559Z,954.25
2022-11-08T01:26:38.559Z,954.26
2022-11-08T01:27:38.550Z,954.26
2022-11-08T01:28:45.584Z,954.27
2022-11-08T01:29:38.535Z,954.24
2022-11-08T01:30:38.540Z,954.24
2022-11-08T01:31:38.538Z,954.22
2022-11-08T01:32:38.534Z,954.21
2022-11-08T01:33:38.537Z,954.25
2022-11-08T01:34:38.552Z,954.28
2022-11-08T01:35:38.537Z,954.26
2022-11-08T01:36:38.526Z,954.28
2022-11-08T01:37:38.526Z,954.26
2022-11-08T01:38:38.536Z,954.19
2022-11-08T01:39:38.536Z,954.18
2022-11-08T01:40:38.538Z,954.22
2022-11-08T01:41:38.536Z,954.20
2022-11-08T01:42:38.528Z,954.18
2022-11-08T01:43:38.540Z,954.11
2022-11-08T01:44:38.570Z,954.08
2022-11-08T01:45:38.548Z,954.03
2022-11-08T01:46:38.569Z,954.04
2022-11-08T01:47:38.570Z,954.08
2022-11-08T01:48:38.589Z,954.06
2022-11-08T01:49:38.588Z,954.11
2022-11-08T01:50:38.600Z,954.11
2022-11-08T01:51:38.609Z,954.10
2022-11-08T01:52:38.621Z,954.12
2022-11-08T01:53:38.626Z,954.12
2022-11-08T01:54:38.669Z,954.11
2022-11-08T01:55:38.658Z,954.11
2022-11-08T01:56:38.681Z,954.12
2022-11-08T01:57:38.698Z,954.05
2022-11-08T01:58:38.721Z,954.07
2022-11-08T01:59:38.740Z,954.03
2022-11-08T02:00:38.751Z,954.02
2022-11-08T02:01:38.868Z,954.02
2022-11-08T02:02:38.831Z,953.98
2022-11-08T02:03:38.802Z,954.00
2022-11-08T02:04:38.832Z,953.99
2022-11-08T02:05:38.834Z,954.08
2022-11-08T02:06:38.866Z,954.12
2022-11-08T02:07:38.870Z,954.12
2022-11-08T02:08:38.904Z,954.07
2022-11-08T02:09:38.924Z,954.02
2022-11-08T02:10:38.934Z,954.00
2022-11-08T02:11:38.943Z,954.09
2022-11-08T02:12:38.974Z,954.10
2022-11-08T02:13:38.993Z,954.09
2022-11-08T02:14:39.026Z,954.08
2022-11-08T02:15:39.014Z,954.15
2022-11-08T02:16:39.033Z,954.10
2022-11-08T02:17:39.061Z,954.09
2022-11-08T02:18:39.097Z,954.10
2022-11-08T02:19:39.118Z,954.12
2022-11-08T02:20:39.121Z,954.10
2022-11-08T02:21:39.144Z,954.13
2022-11-08T02:22:39.164Z,954.18
2022-11-08T02:23:39.183Z,954.14
2022-11-08T02:24:39.237Z,954.12
2022-11-08T02:25:39.243Z,954.13
2022-11-08T02:26:39.265Z,954.12
2022-11-08T02:27:39.304Z,954.11
2022-11-08T02:28:39.333Z,954.09
2022-11-08T02:29:39.345Z,954.07
2022-11-08T02:30:39.371Z,954.02
2022-11-08T02:31:39.394Z,954.01
2022-11-08T02:32:39.425Z,954.02
2022-11-08T02:33:39.453Z,954.01
2022-11-08T02:34:39.487Z,953.97
2022-11-08T02:35:39.507Z,953.97
2022-11-08T02:36:39.546Z,953.91
2022-11-08T02:37:39.574Z,953.93
2022-11-08T02:38:39.597Z,953.92
2022-11-08T02:39:39.638Z,953.90
2022-11-08T02:40:39.647Z,953.91
2022-11-08T02:41:39.657Z,953.92
2022-11-08T02:42:39.708Z,953.98
2022-11-08T02:43:39.727Z,953.98
2022-11-08T02:44:39.767Z,953.96
2022-11-08T02:45:39.789Z,953.96
2022-11-08T02:46:39.818Z,953.99
2022-11-08T02:47:39.840Z,953.99
2022-11-08T02:48:39.885Z,953.95
2022-11-08T02:49:39.918Z,953.92
2022-11-08T02:51:00.959Z,953.94
2022-11-08T02:51:39.971Z,953.93
2022-11-08T02:52:40.002Z,953.94
2022-11-08T02:53:40.036Z,953.97
2022-11-08T02:54:40.072Z,953.98
2022-11-08T02:55:40.090Z,953.97
2022-11-08T02:56:40.103Z,954.02
2022-11-08T02:57:40.133Z,953.94
2022-11-08T02:58:40.162Z,953.92
2022-11-08T02:59:40.201Z,953.88
2022-11-08T03:00:40.213Z,953.84
2022-11-08T03:01:40.331Z,953.90
2022-11-08T03:02:40.309Z,953.89
2022-11-08T03:03:40.294Z,953.90
2022-11-08T03:04:40.361Z,953.94
2022-11-08T03:05:40.352Z,953.88
2022-11-08T03:06:40.373Z,953.90
2022-11-08T03:07:40.400Z,953.93
2022-11-08T03:08:40.422Z,953.90
2022-11-08T03:09:40.463Z,953.84
2022-11-08T03:10:40.470Z,953.86
2022-11-08T03:11:40.504Z,953.81
2022-11-08T03:12:40.531Z,953.84
2022-11-08T03:13:40.564Z,953.83
2022-11-08T03:14:40.614Z,953.82
2022-11-08T03:15:40.636Z,953.82
2022-11-08T03:16:40.652Z,953.82
2022-11-08T03:17:40.683Z,953.83
2022-11-08T03:18:40.715Z,953.82
2022-11-08T03:19:40.765Z,953.84
2022-11-08T03:20:40.842Z,953.81
2022-11-08T03:21:40.824Z,953.87
2022-11-08T03:22:40.845Z,953.78
2022-11-08T03:23:40.964Z,953.76
2022-11-08T03:24:40.926Z,953.81
2022-11-08T03:25:40.955Z,953.83
2022-11-08T03:26:40.986Z,953.83
2022-11-08T03:27:41.026Z,953.81
2022-11-08T03:28:41.081Z,953.79
2022-11-08T03:29:41.117Z,953.78
2022-11-08T03:30:41.141Z,953.80
2022-11-08T03:31:41.179Z,953.86
2022-11-08T03:32:41.215Z,953.80
2022-11-08T03:33:41.237Z,953.78
2022-11-08T03:34:41.294Z,953.80
2022-11-08T03:35:41.307Z,953.77
2022-11-08T03:36:41.386Z,953.71
2022-11-08T03:37:41.376Z,953.79
2022-11-08T03:38:41.408Z,953.76
2022-11-08T03:39:41.526Z,953.79
2022-11-08T03:40:41.467Z,953.80
2022-11-08T03:41:41.506Z,953.80
2022-11-08T03:42:41.536Z,953.87
2022-11-08T03:43:41.579Z,953.82
2022-11-08T03:44:41.616Z,953.85
2022-11-08T03:45:41.647Z,953.83
2022-11-08T03:46:41.669Z,953.82
2022-11-08T03:47:41.708Z,953.83
2022-11-08T03:48:41.742Z,953.79
2022-11-08T03:49:41.781Z,953.82
2022-11-08T03:50:41.809Z,953.87
2022-11-08T03:51:41.840Z,953.84
2022-11-08T03:52:41.878Z,953.86
2022-11-08T03:53:41.900Z,953.86
2022-11-08T03:54:41.960Z,953.82
2022-11-08T03:55:41.981Z,953.84
2022-11-08T03:56:42.012Z,953.88
2022-11-08T03:57:42.042Z,953.86
2022-11-08T03:58:42.092Z,953.88
2022-11-08T03:59:42.132Z,953.91
2022-11-08T04:00:42.163Z,953.91
2022-11-08T04:01:42.360Z,953.88
2022-11-08T04:02:42.305Z,953.91
2022-11-08T04:03:42.263Z,953.89
2022-11-08T04:04:42.324Z,953.85
2022-11-08T04:05:42.333Z,953.87
2022-11-08T04:06:42.381Z,953.87
2022-11-08T04:07:42.412Z,953.83
2022-11-08T04:08:42.464Z,953.86
2022-11-08T04:09:42.505Z,953.89
2022-11-08T04:10:42.536Z,953.86
2022-11-08T04:11:42.563Z,953.89
2022-11-08T04:12:42.613Z,953.88
2022-11-08T04:13:42.644Z,953.90
2022-11-08T04:14:42.713Z,953.89
2022-11-08T04:15:42.732Z,953.86
2022-11-08T04:16:42.811Z,953.91
2022-11-08T04:17:42.804Z,953.87
2022-11-08T04:18:42.854Z,953.88
2022-11-08T04:19:42.895Z,953.88
2022-11-08T04:20:42.933Z,953.87
2022-11-08T04:21:42.967Z,953.88
2022-11-08T04:22:43.014Z,953.88
2022-11-08T04:23:43.047Z,953.84
2022-11-08T04:24:43.112Z,953.92
2022-11-08T04:25:43.126Z,953.90
2022-11-08T04:26:43.167Z,953.91
2022-11-08T04:27:43.208Z,953.90
2022-11-08T04:28:43.262Z,953.85
2022-11-08T04:29:43.297Z,953.87
2022-11-08T04:30:43.327Z,953.88
2022-11-08T04:31:43.367Z,953.88
2022-11-08T04:32:43.415Z,953.83
2022-11-08T04:33:43.452Z,953.83
2022-11-08T04:34:43.508Z,953.84
2022-11-08T04:35:43.519Z,953.83
2022-11-08T04:36:43.569Z,953.84
2022-11-08T04:37:43.608Z,953.84
2022-11-08T04:38:43.657Z,953.86
2022-11-08T04:39:43.706Z,953.83
2022-11-08T04:40:43.736Z,953.83
2022-11-08T04:41:43.776Z,953.81
2022-11-08T04:42:43.824Z,953.78
2022-11-08T04:43:43.859Z,953.77
2022-11-08T04:44:43.929Z,953.82
2022-11-08T04:45:43.951Z,953.78
2022-11-08T04:46:44.008Z,953.76
2022-11-08T04:47:48.162Z,953.75
2022-11-08T04:48:44.095Z,953.76
2022-11-08T04:49:44.140Z,953.79
2022-11-08T04:50:44.181Z,953.80
2022-11-08T04:51:44.212Z,953.76
2022-11-08T04:52:44.269Z,953.74
2022-11-08T04:53:44.314Z,953.77
2022-11-08T04:54:44.387Z,953.80
2022-11-08T04:55:44.411Z,953.78
2022-11-08T04:56:44.471Z,953.74
2022-11-08T04:57:44.513Z,953.75
2022-11-08T04:58:44.563Z,953.73
2022-11-08T04:59:44.621Z,953.71
2022-11-08T05:00:44.663Z,953.74
2022-11-08T05:01:44.879Z,953.68
2022-11-08T05:02:44.804Z,953.70
2022-11-08T05:03:44.804Z,953.70
2022-11-08T05:04:44.881Z,953.69
2022-11-08T05:05:44.903Z,953.71
2022-11-08T05:06:44.952Z,953.64
2022-11-08T05:07:44.995Z,953.72
2022-11-08T05:08:45.045Z,953.70
2022-11-08T05:09:45.095Z,953.70
2022-11-08T05:10:45.124Z,953.68
2022-11-08T05:11:45.173Z,953.67
2022-11-08T05:12:45.226Z,953.68
2022-11-08T05:13:45.279Z,953.65
2022-11-08T05:14:45.345Z,953.66
2022-11-08T05:15:45.366Z,953.65
2022-11-08T05:16:45.416Z,953.69
2022-11-08T05:17:45.455Z,953.71
2022-11-08T05:18:45.518Z,953.68
2022-11-08T05:19:45.555Z,953.66
2022-11-08T05:20:45.595Z,953.66
2022-11-08T05:21:45.626Z,953.65
2022-11-08T05:22:45.684Z,953.68
2022-11-08T05:23:45.726Z,953.66
2022-11-08T05:24:45.785Z,953.72
2022-11-08T05:25:45.817Z,953.69
2022-11-08T05:26:45.867Z,953.76
2022-11-08T05:27:45.907Z,953.69
2022-11-08T05:28:45.966Z,953.70
2022-11-08T05:29:46.027Z,953.70
2022-11-08T05:30:46.068Z,953.74
2022-11-08T05:31:46.114Z,953.75
2022-11-08T05:32:46.168Z,953.74
2022-11-08T05:33:46.208Z,953.74
2022-11-08T05:34:46.279Z,953.69
2022-11-08T05:35:46.311Z,953.67
2022-11-08T05:36:46.361Z,953.65
2022-11-08T05:37:46.399Z,953.65
2022-11-08T05:38:46.449Z,953.63
2022-11-08T05:39:46.520Z,953.60
2022-11-08T05:40:46.550Z,953.61
2022-11-08T05:41:46.589Z,953.66
2022-11-08T05:42:46.654Z,953.62
2022-11-08T05:43:46.690Z,953.65
2022-11-08T05:44:46.758Z,953.63
2022-11-08T05:45:46.791Z,953.66
2022-11-08T05:46:46.858Z,953.67
2022-11-08T05:47:46.881Z,953.66
2022-11-08T05:48:46.968Z,953.65
2022-11-08T05:49:46.982Z,953.67
2022-11-08T05:50:47.019Z,953.68
2022-11-08T05:51:47.060Z,953.64
2022-11-08T05:52:47.109Z,953.65
2022-11-08T05:53:47.178Z,953.67
2022-11-08T05:54:47.203Z,953.67
2022-11-08T05:55:47.223Z,953.64
2022-11-08T05:56:47.273Z,953.62
2022-11-08T05:57:47.304Z,953.66
2022-11-08T05:58:47.351Z,953.66
2022-11-08T05:59:47.400Z,953.62
2022-11-08T06:00:47.436Z,953.66
2022-11-08T06:01:47.570Z,953.64
2022-11-08T06:02:47.577Z,953.65
2022-11-08T06:03:47.564Z,953.60
2022-11-08T06:04:47.635Z,953.58
2022-11-08T06:05:47.664Z,953.55
2022-11-08T06:06:47.715Z,953.58
2022-11-08T06:07:47.754Z,953.54
2022-11-08T06:08:50.750Z,953.55
2022-11-08T06:09:47.863Z,953.56
2022-11-08T06:10:47.895Z,953.57
2022-11-08T06:11:47.937Z,953.53
2022-11-08T06:12:47.988Z,953.56
2022-11-08T06:13:48.027Z,953.54
2022-11-08T06:14:48.108Z,953.54
2022-11-08T06:15:48.136Z,953.56
2022-11-08T06:16:48.196Z,953.58
2022-11-08T06:17:48.246Z,953.58
2022-11-08T06:18:48.307Z,953.58
2022-11-08T06:19:48.357Z,953.57
2022-11-08T06:20:48.406Z,953.59
2022-11-08T06:21:48.444Z,953.57
2022-11-08T06:22:48.487Z,953.56
2022-11-08T06:23:48.536Z,953.53
2022-11-08T06:24:48.607Z,953.52
2022-11-08T06:25:48.637Z,953.57
2022-11-08T06:26:48.698Z,953.57
2022-11-08T06:27:48.738Z,953.61
2022-11-08T06:28:48.798Z,953.63
2022-11-08T06:29:48.857Z,953.66
2022-11-08T06:30:48.906Z,953.63
2022-11-08T06:31:48.956Z,953.69
2022-11-08T06:32:49.010Z,953.68
2022-11-08T06:33:49.061Z,953.63
2022-11-08T06:34:49.149Z,953.61
2022-11-08T06:35:49.179Z,953.63
2022-11-08T06:36:49.242Z,953.64
2022-11-08T06:37:49.289Z,953.67
2022-11-08T06:38:49.347Z,953.69
2022-11-08T06:39:49.409Z,953.68
2022-11-08T06:40:49.450Z,953.70
2022-11-08T06:41:49.501Z,953.70
2022-11-08T06:42:49.561Z,953.75
2022-11-08T06:43:49.601Z,953.71
2022-11-08T06:44:49.671Z,953.70
2022-11-08T06:45:49.711Z,953.76
2022-11-08T06:46:49.760Z,953.77
2022-11-08T06:47:49.810Z,953.80
2022-11-08T06:48:49.871Z,953.77
2022-11-08T06:49:49.931Z,953.80
2022-11-08T06:50:49.981Z,953.79
2022-11-08T06:51:50.023Z,953.79
2022-11-08T06:52:50.094Z,953.78
2022-11-08T06:53:50.132Z,953.80
2022-11-08T06:54:50.209Z,953.78
2022-11-08T06:55:50.243Z,953.78
2022-11-08T06:56:50.302Z,953.78
2022-11-08T06:57:50.353Z,953.79
2022-11-08T06:58:50.421Z,953.76
2022-11-08T06:59:50.484Z,953.73
2022-11-08T07:00:50.527Z,953.76
2022-11-08T07:01:50.681Z,953.79
2022-11-08T07:02:50.701Z,953.71
2022-11-08T07:03:50.666Z,953.70
2022-11-08T07:04:50.748Z,953.75
2022-11-08T07:05:50.781Z,953.66
2022-11-08T07:06:50.846Z,953.69
2022-11-08T07:07:50.895Z,953.65
2022-11-08T07:08:51.128Z,953.68
2022-11-08T07:09:51.024Z,953.65
2022-11-08T07:10:51.084Z,953.64
2022-11-08T07:11:51.114Z,953.57
2022-11-08T07:12:51.175Z,953.58
2022-11-08T07:13:51.225Z,953.58
2022-11-08T07:14:51.293Z,953.60
2022-11-08T07:15:51.332Z,953.59
2022-11-08T07:16:51.387Z,953.58
2022-11-08T07:17:51.483Z,953.60
2022-11-08T07:18:51.598Z,953.61
2022-11-08T07:19:51.547Z,953.66
2022-11-08T07:20:51.590Z,953.64
2022-11-08T07:21:51.627Z,953.67
2022-11-08T07:22:51.685Z,953.69
2022-11-08T07:23:51.730Z,953.74
2022-11-08T07:24:51.806Z,953.75
2022-11-08T07:25:51.828Z,953.78
2022-11-08T07:26:51.895Z,953.72
2022-11-08T07:27:51.947Z,953.68
2022-11-08T07:28:59.044Z,953.67
2022-11-08T07:29:52.064Z,953.68
2022-11-08T07:30:52.111Z,953.73
2022-11-08T07:31:52.162Z,953.71
2022-11-08T07:32:52.214Z,953.75
2022-11-08T07:33:52.264Z,953.75
2022-11-08T07:34:52.344Z,953.75
2022-11-08T07:35:52.366Z,953.78
2022-11-08T07:36:52.430Z,953.78
2022-11-08T07:37:52.474Z,953.76
2022-11-08T07:38:52.588Z,953.78
2022-11-08T07:39:52.598Z,953.81
2022-11-08T07:40:52.634Z,953.83
2022-11-08T07:41:52.676Z,953.78
2022-11-08T07:43:11.582Z,953.78
2022-11-08T07:43:53.778Z,953.77
2022-11-08T07:44:52.848Z,953.71
2022-11-08T07:45:52.877Z,953.77
2022-11-08T07:46:52.935Z,953.71
2022-11-08T07:47:52.983Z,953.72
2022-11-08T07:48:53.025Z,953.72
2022-11-08T07:49:53.099Z,953.72
2022-11-08T07:50:53.120Z,953.76
2022-11-08T07:51:53.166Z,953.78
2022-11-08T07:52:53.228Z,953.76
2022-11-08T07:53:53.265Z,953.82
2022-11-08T07:54:53.328Z,953.83
2022-11-08T07:55:53.352Z,953.78
2022-11-08T07:56:53.445Z,953.69
2022-11-08T07:57:53.449Z,953.73
2022-11-08T07:58:53.498Z,953.69
2022-11-08T07:59:53.561Z,953.64
2022-11-08T08:00:53.588Z,953.68
2022-11-08T08:01:53.708Z,953.68
2022-11-08T08:02:53.710Z,953.65
2022-11-08T08:03:53.723Z,953.64
2022-11-08T08:04:53.769Z,953.64
2022-11-08T08:05:59.524Z,953.62
2022-11-08T08:06:54.827Z,953.69
2022-11-08T08:07:53.892Z,953.69
2022-11-08T08:08:53.932Z,953.71
2022-11-08T08:09:53.976Z,953.66
2022-11-08T08:10:53.990Z,953.62
2022-11-08T08:11:54.049Z,953.61
2022-11-08T08:12:54.067Z,953.60
2022-11-08T08:13:54.111Z,953.61
2022-11-08T08:14:54.149Z,953.57
2022-11-08T08:15:54.205Z,953.63
2022-11-08T08:16:54.192Z,953.57
2022-11-08T08:17:54.224Z,953.58
2022-11-08T08:18:56.329Z,953.62
2022-11-08T08:19:54.291Z,953.60
2022-11-08T08:20:54.306Z,953.55
2022-11-08T08:21:54.355Z,953.57
2022-11-08T08:22:54.384Z,953.55
2022-11-08T08:23:54.405Z,953.50
2022-11-08T08:24:54.433Z,953.53
2022-11-08T08:25:54.465Z,953.52
2022-11-08T08:26:54.465Z,953.58
2022-11-08T08:27:54.497Z,953.58
2022-11-08T08:28:54.509Z,953.61
2022-11-08T08:29:54.596Z,953.61
2022-11-08T08:30:54.565Z,953.65
2022-11-08T08:31:54.604Z,953.62
2022-11-08T08:33:21.991Z,953.62
2022-11-08T08:33:55.616Z,953.66
2022-11-08T08:34:54.660Z,953.68
2022-11-08T08:35:54.651Z,953.69
2022-11-08T08:36:54.658Z,953.68
2022-11-08T08:37:54.679Z,953.67
2022-11-08T08:38:54.688Z,953.69
2022-11-08T08:39:54.748Z,953.69
2022-11-08T08:40:54.717Z,953.68
2022-11-08T08:41:54.763Z,953.66
2022-11-08T08:42:54.751Z,953.69
2022-11-08T08:43:54.771Z,953.68
2022-11-08T08:44:54.798Z,953.72
2022-11-08T08:45:54.779Z,953.64
2022-11-08T08:46:54.790Z,953.64
2022-11-08T08:47:54.813Z,953.61
2022-11-08T08:48:54.810Z,953.56
2022-11-08T08:49:54.836Z,953.55
2022-11-08T08:50:54.833Z,953.57
2022-11-08T08:51:54.831Z,953.55
2022-11-08T08:52:54.830Z,953.52
2022-11-08T08:53:54.839Z,953.50
2022-11-08T08:54:54.848Z,953.48
2022-11-08T08:55:54.848Z,953.42
2022-11-08T08:56:54.841Z,953.40
2022-11-08T08:57:54.861Z,953.36
2022-11-08T09:01:55.841Z,953.37
2022-11-08T09:02:54.823Z,953.37
2022-11-08T09:03:54.814Z,953.41
2022-11-08T09:04:54.815Z,953.38
2022-11-08T09:05:54.824Z,953.39
2022-11-08T09:06:54.849Z,953.40
2022-11-08T09:07:54.812Z,953.41
2022-11-08T09:08:54.796Z,953.39
2022-11-08T09:09:54.795Z,953.40
2022-11-08T09:10:54.801Z,953.44
2022-11-08T09:11:54.786Z,953.43
2022-11-08T09:12:54.776Z,953.42
2022-11-08T09:13:54.767Z,953.39
2022-11-08T09:14:54.754Z,953.36
2022-11-08T09:15:54.759Z,953.35
2022-11-08T09:16:54.725Z,953.31
2022-11-08T09:17:54.717Z,953.33
2022-11-08T09:18:54.761Z,953.34
2022-11-08T09:19:57.266Z,953.35
2022-11-08T09:20:54.687Z,953.38
2022-11-08T09:21:54.716Z,953.38
2022-11-08T09:22:54.641Z,953.37
2022-11-08T09:23:54.644Z,953.36
2022-11-08T09:24:54.618Z,953.31
2022-11-08T09:25:54.588Z,953.32
2022-11-08T09:26:54.567Z,953.32
2022-11-08T09:27:54.562Z,953.30
2022-11-08T09:28:54.520Z,953.33
2022-11-08T09:29:54.521Z,953.29
2022-11-08T09:30:54.502Z,953.34
2022-11-08T09:31:54.494Z,953.37
2022-11-08T09:33:00.894Z,953.35
2022-11-08T09:33:55.500Z,953.32
2022-11-08T09:34:54.448Z,953.31
2022-11-08T09:35:54.424Z,953.31
2022-11-08T09:36:54.395Z,953.32
2022-11-08T09:37:54.394Z,953.26
2022-11-08T09:38:54.362Z,953.28
2022-11-08T09:39:54.350Z,953.24
2022-11-08T09:40:54.324Z,953.24
2022-11-08T09:41:55.741Z,953.24
2022-11-08T09:42:54.274Z,953.28
2022-11-08T09:43:54.256Z,953.34
2022-11-08T09:44:54.223Z,953.30
2022-11-08T09:45:54.215Z,953.23
2022-11-08T09:46:54.175Z,953.21
2022-11-08T09:47:54.155Z,953.19
2022-11-08T09:48:54.126Z,953.21
2022-11-08T09:49:54.106Z,953.26
2022-11-08T09:50:54.138Z,953.19
2022-11-08T09:51:54.065Z,953.22
2022-11-08T09:52:54.029Z,953.18
2022-11-08T09:53:54.011Z,953.16
2022-11-08T09:54:54.014Z,953.14
2022-11-08T09:55:53.957Z,953.18
2022-11-08T09:56:53.938Z,953.19
2022-11-08T09:57:53.906Z,953.11
2022-11-08T09:58:53.869Z,953.13
2022-11-08T09:59:53.851Z,953.10
2022-11-08T10:00:53.814Z,953.08
2022-11-08T10:01:53.857Z,953.10
2022-11-08T10:02:53.760Z,953.12
2022-11-08T10:03:53.730Z,953.07
2022-11-08T10:04:53.690Z,953.06
2022-11-08T10:05:53.659Z,953.03
2022-11-08T10:06:58.067Z,953.01
2022-11-08T10:07:54.591Z,953.00
2022-11-08T10:08:53.551Z,953.05
2022-11-08T10:09:53.530Z,953.04
2022-11-08T10:10:53.491Z,953.08
2022-11-08T10:11:53.481Z,953.09
2022-11-08T10:12:53.445Z,953.05
2022-11-08T10:13:53.399Z,953.06
2022-11-08T10:14:54.629Z,953.11
2022-11-08T10:15:53.333Z,953.05
2022-11-08T10:16:53.293Z,953.12
2022-11-08T10:17:53.253Z,953.09
2022-11-08T10:18:53.203Z,953.08
2022-11-08T10:19:53.181Z,953.08
2022-11-08T10:20:53.125Z,953.10
2022-11-08T10:21:53.112Z,953.13
2022-11-08T10:22:53.158Z,953.13
2022-11-08T10:23:53.028Z,953.10
2022-11-08T10:24:52.986Z,953.13
2022-11-08T10:25:52.964Z,953.16
2022-11-08T10:26:52.942Z,953.16
2022-11-08T10:27:52.887Z,953.18
2022-11-08T10:28:52.843Z,953.15
2022-11-08T10:29:52.808Z,953.19
2022-11-08T10:30:52.770Z,953.16
2022-11-08T10:31:52.747Z,953.20
2022-11-08T10:32:52.686Z,953.17
2022-11-08T10:33:52.647Z,953.15
2022-11-08T10:34:52.604Z,953.11
2022-11-08T10:35:56.412Z,953.06
2022-11-08T10:36:53.536Z,953.08
2022-11-08T10:37:52.495Z,953.12
2022-11-08T10:38:52.439Z,953.14
2022-11-08T10:39:52.410Z,953.16
2022-11-08T10:40:52.360Z,953.08
2022-11-08T10:41:52.415Z,953.21
2022-11-08T10:42:52.317Z,953.17
2022-11-08T10:43:52.267Z,953.08
2022-11-08T10:44:52.210Z,953.07
2022-11-08T10:45:52.171Z,953.10
2022-11-08T10:46:52.126Z,953.06
2022-11-08T10:47:52.096Z,953.04
2022-11-08T10:48:52.031Z,953.03
2022-11-08T10:49:51.993Z,952.94
2022-11-08T10:50:51.967Z,952.91
2022-11-08T10:51:51.920Z,952.84
2022-11-08T10:52:51.857Z,952.86
2022-11-08T10:53:51.818Z,952.85
2022-11-08T10:54:51.768Z,952.84
2022-11-08T10:55:51.715Z,952.89
2022-11-08T10:56:51.696Z,952.90
2022-11-08T10:57:51.653Z,952.87
2022-11-08T10:58:51.595Z,952.86
2022-11-08T10:59:51.566Z,952.92
2022-11-08T11:00:51.525Z,952.91
2022-11-08T11:01:51.508Z,952.94
2022-11-08T11:02:51.450Z,952.96
2022-11-08T11:03:51.407Z,952.97
2022-11-08T11:04:51.348Z,952.96
2022-11-08T11:05:51.317Z,952.98
2022-11-08T11:06:51.308Z,953.02
2022-11-08T11:07:51.248Z,953.01
2022-11-08T11:08:51.189Z,953.02
2022-11-08T11:09:51.162Z,953.03
2022-11-08T11:10:51.108Z,953.03
2022-11-08T11:11:51.070Z,953.02
2022-11-08T11:12:51.065Z,952.98
2022-11-08T11:13:50.990Z,953.00
2022-11-08T11:14:50.950Z,953.02
2022-11-08T11:15:50.940Z,952.96
2022-11-08T11:16:50.874Z,952.99
2022-11-08T11:17:50.843Z,952.96
2022-11-08T11:18:50.784Z,952.93
2022-11-08T11:19:50.747Z,952.90
2022-11-08T11:20:50.685Z,952.82
2022-11-08T11:21:50.641Z,952.82
2022-11-08T11:22:50.610Z,952.82
2022-11-08T11:23:50.550Z,952.85
2022-11-08T11:24:50.498Z,952.85
2022-11-08T11:25:50.468Z,952.85
2022-11-08T11:26:50.415Z,952.85
2022-11-08T11:27:50.384Z,952.86
2022-11-08T11:28:50.335Z,952.77
2022-11-08T11:29:50.303Z,952.74
2022-11-08T11:30:50.246Z,952.72
2022-11-08T11:31:50.214Z,952.76
2022-11-08T11:32:50.205Z,952.75
2022-11-08T11:33:50.135Z,952.73
2022-11-08T11:34:50.077Z,952.66
2022-11-08T11:35:50.037Z,952.69
2022-11-08T11:36:49.989Z,952.73
2022-11-08T11:37:49.947Z,952.71
2022-11-08T11:38:49.909Z,952.71
2022-11-08T11:39:49.868Z,952.71
2022-11-08T11:40:49.841Z,952.71
2022-11-08T11:41:49.775Z,952.74
2022-11-08T11:42:49.747Z,952.76
2022-11-08T11:43:49.711Z,952.70
2022-11-08T11:44:49.640Z,952.74
2022-11-08T11:45:49.610Z,952.74
2022-11-08T11:46:49.550Z,952.70
2022-11-08T11:47:49.510Z,952.65
2022-11-08T11:48:49.513Z,952.62
2022-11-08T11:49:49.431Z,952.63
2022-11-08T11:50:49.472Z,952.63
2022-11-08T11:51:49.429Z,952.58
2022-11-08T11:52:49.291Z,952.56
2022-11-08T11:53:49.290Z,952.52
2022-11-08T11:54:49.210Z,952.47
2022-11-08T11:55:49.174Z,952.47
2022-11-08T11:56:49.140Z,952.47
2022-11-08T11:57:49.108Z,952.42
2022-11-08T11:58:49.063Z,952.42
2022-11-08T11:59:49.021Z,952.40
2022-11-08T12:00:48.983Z,952.39
2022-11-08T12:01:49.010Z,952.32
2022-11-08T12:02:48.924Z,952.37
2022-11-08T12:03:48.885Z,952.39
2022-11-08T12:04:48.823Z,952.40
2022-11-08T12:05:48.784Z,952.38
2022-11-08T12:06:48.861Z,952.44
2022-11-08T12:07:48.706Z,952.39
2022-11-08T12:08:48.669Z,952.39
2022-11-08T12:09:48.615Z,952.37
2022-11-08T12:10:48.558Z,952.36
2022-11-08T12:11:48.529Z,952.38
2022-11-08T12:12:48.467Z,952.36
2022-11-08T12:13:53.936Z,952.35
2022-11-08T12:14:49.380Z,952.31
2022-11-08T12:15:48.332Z,952.30
2022-11-08T12:16:48.279Z,952.30
2022-11-08T12:17:48.238Z,952.30
2022-11-08T12:18:48.342Z,952.31
2022-11-08T12:19:48.173Z,952.34
2022-11-08T12:20:48.102Z,952.32
2022-11-08T12:21:48.059Z,952.31
2022-11-08T12:22:48.020Z,952.32
2022-11-08T12:23:47.989Z,952.31
2022-11-08T12:24:47.921Z,952.29
2022-11-08T12:25:47.866Z,952.25
2022-11-08T12:26:47.834Z,952.23
2022-11-08T12:27:47.790Z,952.18
2022-11-08T12:28:47.739Z,952.16
2022-11-08T12:29:47.693Z,952.13
2022-11-08T12:30:47.651Z,952.17
2022-11-08T12:31:47.602Z,952.21